createdAt,value
2023-03-10T00:00:42.736Z,94196.47
2023-03-10T00:03:09.113Z,94199.53
2023-03-10T00:05:35.541Z,94199.53
2023-03-10T00:08:01.875Z,94201.76
2023-03-10T00:10:28.208Z,94199.66
2023-03-10T00:12:54.601Z,94198.52
2023-03-10T00:15:20.936Z,94201.45
2023-03-10T00:17:47.315Z,94213.98
2023-03-10T00:20:13.672Z,94210.75
2023-03-10T00:22:40.065Z,94217.03
2023-03-10T00:25:06.406Z,94214.61
2023-03-10T00:27:32.793Z,94208.64
2023-03-10T00:29:59.136Z,94211.22
2023-03-10T00:32:25.571Z,94211.22
2023-03-10T00:34:51.876Z,94183.38
2023-03-10T00:37:18.262Z,94183.38
2023-03-10T00:39:44.605Z,94200.22
2023-03-10T00:42:10.991Z,94200.84
2023-03-10T00:44:38.564Z,94195.69
2023-03-10T00:47:03.716Z,94201.32
2023-03-10T00:49:30.075Z,94200.84
2023-03-10T00:51:56.464Z,94200.03
2023-03-10T00:54:22.795Z,94199.69
2023-03-10T00:56:49.187Z,94192.77
2023-03-10T00:59:15.522Z,94188.59
2023-03-10T01:01:41.976Z,94184.73
2023-03-10T01:04:08.310Z,94181.80
2023-03-10T01:06:34.654Z,94177.59
2023-03-10T01:09:00.993Z,94193.87
2023-03-10T01:11:27.393Z,94194.81
2023-03-10T01:13:53.729Z,94197.39
2023-03-10T01:16:20.180Z,94206.09
2023-03-10T01:18:46.471Z,94201.76
2023-03-10T01:21:12.863Z,94200.13
2023-03-10T01:23:39.192Z,94197.67
2023-03-10T01:26:05.641Z,94192.52
2023-03-10T01:28:31.993Z,94183.66
2023-03-10T01:30:58.462Z,94182.02
2023-03-10T01:33:24.769Z,94185.41
2023-03-10T01:35:51.175Z,94188.81
2023-03-10T01:38:17.553Z,94184.76
2023-03-10T01:40:43.902Z,94184.25
2023-03-10T01:43:10.256Z,94187.17
2023-03-10T01:45:36.642Z,94180.39
2023-03-10T01:48:02.982Z,94179.73
2023-03-10T01:50:29.360Z,94179.26
2023-03-10T01:52:55.703Z,94180.55
2023-03-10T01:55:22.096Z,94187.11
2023-03-10T01:57:48.429Z,94194.37
2023-03-10T02:00:14.817Z,94204.84
2023-03-10T02:02:41.170Z,94200.50
2023-03-10T02:05:07.571Z,94195.47
2023-03-10T02:07:33.903Z,94198.86
2023-03-10T02:10:00.305Z,94204.48
2023-03-10T02:12:26.655Z,94205.87
2023-03-10T02:14:54.252Z,94208.45
2023-03-10T02:17:19.381Z,94204.14
2023-03-10T02:19:45.774Z,94209.89
2023-03-10T02:22:12.120Z,94206.02
2023-03-10T02:24:38.507Z,94199.58
2023-03-10T02:27:04.862Z,94197.48
2023-03-10T02:29:31.243Z,94198.92
2023-03-10T02:32:00.093Z,94197.12
2023-03-10T02:34:26.421Z,94199.86
2023-03-10T02:36:52.765Z,94205.02
2023-03-10T02:39:19.161Z,94200.34
2023-03-10T02:41:45.808Z,94202.09
2023-03-10T02:44:11.921Z,94197.41
2023-03-10T02:46:38.259Z,94196.94
2023-03-10T02:49:04.656Z,94193.23
2023-03-10T02:54:16.321Z,94194.99
2023-03-10T02:56:42.635Z,94206.23
2023-03-10T02:59:09.022Z,94192.89
2023-03-10T03:01:35.481Z,94190.44
2023-03-10T03:04:01.816Z,94187.07
2023-03-10T03:06:28.095Z,94193.98
2023-03-10T03:08:54.485Z,94192.00
2023-03-10T03:11:20.828Z,94189.58
2023-03-10T03:13:47.232Z,94192.16
2023-03-10T03:16:13.625Z,94190.17
2023-03-10T03:18:39.963Z,94187.48
2023-03-10T03:21:06.308Z,94183.61
2023-03-10T03:23:32.712Z,94185.53
2023-03-10T03:25:59.048Z,94187.76
2023-03-10T03:28:25.431Z,94192.44
2023-03-10T03:30:51.793Z,94188.58
2023-03-10T03:33:18.169Z,94191.63
2023-03-10T03:35:44.560Z,94186.81
2023-03-10T03:38:10.935Z,94176.29
2023-03-10T03:40:37.311Z,94173.40
2023-03-10T03:43:03.683Z,94180.03
2023-03-10T03:45:30.033Z,94178.39
2023-03-10T03:47:56.417Z,94179.84
2023-03-10T03:50:22.766Z,94183.70
2023-03-10T03:52:49.144Z,94185.80
2023-03-10T03:55:15.487Z,94192.25
2023-03-10T03:57:41.872Z,94190.61
2023-03-10T04:00:08.219Z,94187.56
2023-03-10T04:02:34.637Z,94176.25
2023-03-10T04:05:00.978Z,94187.34
2023-03-10T04:07:27.384Z,94182.69
2023-03-10T04:09:53.733Z,94183.63
2023-03-10T04:12:20.109Z,94178.83
2023-03-10T04:14:46.459Z,94181.53
2023-03-10T04:17:12.864Z,94181.53
2023-03-10T04:19:39.214Z,94176.38
2023-03-10T04:22:05.597Z,94181.53
2023-03-10T04:24:31.936Z,94183.28
2023-03-10T04:26:58.355Z,94172.67
2023-03-10T04:29:25.928Z,94171.03
2023-03-10T04:32:04.852Z,94166.70
2023-03-10T04:34:17.457Z,94174.90
2023-03-10T04:36:43.845Z,94177.95
2023-03-10T04:39:10.194Z,94175.84
2023-03-10T04:41:36.590Z,94162.49
2023-03-10T04:44:02.949Z,94160.07
2023-03-10T04:46:29.401Z,94158.62
2023-03-10T04:48:55.713Z,94162.37
2023-03-10T04:51:22.104Z,94163.66
2023-03-10T04:53:48.450Z,94163.97
2023-03-10T04:56:14.883Z,94148.98
2023-03-10T04:58:41.214Z,94151.56
2023-03-10T05:01:07.640Z,94155.77
2023-03-10T05:03:33.946Z,94158.23
2023-03-10T05:06:00.366Z,94150.16
2023-03-10T05:08:26.673Z,94145.00
2023-03-10T05:10:53.063Z,94141.48
2023-03-10T05:13:19.428Z,94134.23
2023-03-10T05:15:45.860Z,94134.23
2023-03-10T05:18:12.181Z,94128.27
2023-03-10T05:20:38.557Z,94126.34
2023-03-10T05:23:04.898Z,94128.33
2023-03-10T05:25:31.290Z,94130.27
2023-03-10T05:27:57.646Z,94132.22
2023-03-10T05:30:25.729Z,94124.72
2023-03-10T05:32:50.423Z,94125.63
2023-03-10T05:35:16.840Z,94120.34
2023-03-10T05:37:43.178Z,94118.23
2023-03-10T05:40:09.563Z,94112.73
2023-03-10T05:42:35.938Z,94122.51
2023-03-10T05:45:02.311Z,94114.49
2023-03-10T05:47:28.648Z,94115.13
2023-03-10T05:49:55.081Z,94120.28
2023-03-10T05:52:21.402Z,94112.03
2023-03-10T05:54:47.791Z,94109.34
2023-03-10T05:57:14.245Z,94106.36
2023-03-10T05:59:40.509Z,94104.49
2023-03-10T06:02:06.883Z,94105.06
2023-03-10T06:04:33.224Z,94099.34
2023-03-10T06:06:59.588Z,94099.47
2023-03-10T06:09:25.967Z,94101.05
2023-03-10T06:11:52.353Z,94096.00
2023-03-10T06:14:18.700Z,94099.99
2023-03-10T06:16:45.160Z,94103.05
2023-03-10T06:19:11.426Z,94108.06
2023-03-10T06:21:37.818Z,94109.07
2023-03-10T06:24:04.219Z,94108.13
2023-03-10T06:26:30.557Z,94107.20
2023-03-10T06:28:56.898Z,94088.11
2023-03-10T06:31:23.402Z,94088.11
2023-03-10T06:33:49.625Z,94094.79
2023-03-10T06:36:16.101Z,94103.87
2023-03-10T06:38:42.364Z,94106.16
2023-03-10T06:41:08.755Z,94106.63
2023-03-10T06:43:35.089Z,94103.23
2023-03-10T06:46:01.501Z,94107.60
2023-03-10T06:48:27.808Z,94107.60
2023-03-10T06:50:54.235Z,94105.39
2023-03-10T06:53:20.577Z,94101.81
2023-03-10T06:55:46.960Z,94106.34
2023-03-10T06:58:13.309Z,94102.47
2023-03-10T07:00:39.711Z,94110.08
2023-03-10T07:03:06.101Z,94103.47
2023-03-10T07:05:32.456Z,94111.66
2023-03-10T07:07:58.805Z,94119.35
2023-03-10T07:10:25.189Z,94096.95
2023-03-10T07:12:51.557Z,94096.95
2023-03-10T07:15:17.936Z,94113.41
2023-03-10T07:17:44.292Z,94111.66
2023-03-10T07:20:10.678Z,94100.28
2023-03-10T07:22:37.014Z,94095.14
2023-03-10T07:25:03.411Z,94093.56
2023-03-10T07:27:29.758Z,94084.58
2023-03-10T07:29:56.146Z,94085.98
2023-03-10T07:32:22.518Z,94085.30
2023-03-10T07:34:48.893Z,94083.88
2023-03-10T07:37:15.243Z,94080.35
2023-03-10T07:39:41.635Z,94087.41
2023-03-10T07:42:07.983Z,94084.59
2023-03-10T07:44:34.376Z,94088.05
2023-03-10T07:47:00.752Z,94085.47
2023-03-10T07:49:27.147Z,94074.04
2023-03-10T07:51:53.487Z,94067.55
2023-03-10T07:54:19.872Z,94067.55
2023-03-10T07:56:46.223Z,94062.73
2023-03-10T07:59:12.633Z,94056.80
2023-03-10T08:01:39.140Z,94056.28
2023-03-10T08:04:05.583Z,94050.78
2023-03-10T08:06:31.783Z,94047.42
2023-03-10T08:08:58.209Z,94039.05
2023-03-10T08:11:24.526Z,94038.23
2023-03-10T08:13:50.968Z,94038.23
2023-03-10T08:16:17.265Z,94031.78
2023-03-10T08:18:43.626Z,94015.20
2023-03-10T08:21:09.996Z,94015.20
2023-03-10T08:23:36.860Z,94015.02
2023-03-10T08:26:02.727Z,94012.61
2023-03-10T08:28:29.110Z,94002.61
2023-03-10T08:31:04.008Z,94000.70
2023-03-10T08:33:21.843Z,93999.12
2023-03-10T08:35:48.204Z,93992.20
2023-03-10T08:38:14.599Z,93953.56
2023-03-10T08:40:41.043Z,93975.75
2023-03-10T08:43:07.447Z,93972.05
2023-03-10T08:45:33.827Z,93966.13
2023-03-10T08:48:00.206Z,93966.13
2023-03-10T08:50:26.602Z,93969.04
2023-03-10T08:52:54.340Z,93970.67
2023-03-10T08:55:19.288Z,93964.94
2023-03-10T08:57:45.702Z,93964.94
2023-03-10T09:00:16.073Z,93954.77
2023-03-10T09:02:38.460Z,93934.42
2023-03-10T09:05:04.763Z,93930.55
2023-03-10T09:07:31.165Z,93936.75
2023-03-10T09:09:57.502Z,93936.75
2023-03-10T09:12:23.892Z,93931.59
2023-03-10T09:14:50.228Z,93911.27
2023-03-10T09:17:16.624Z,93925.30
2023-03-10T09:19:42.968Z,93930.64
2023-03-10T09:22:09.353Z,93913.85
2023-03-10T09:24:35.686Z,93904.09
2023-03-10T09:27:02.061Z,93919.02
2023-03-10T09:29:42.190Z,93895.78
2023-03-10T09:31:54.867Z,93897.88
2023-03-10T09:34:21.148Z,93904.05
2023-03-10T09:36:47.541Z,93904.05
2023-03-10T09:39:14.018Z,93900.86
2023-03-10T09:41:40.372Z,93900.86
2023-03-10T09:44:06.745Z,93904.91
2023-03-10T09:46:33.145Z,93900.05
2023-03-10T09:48:59.485Z,93901.70
2023-03-10T09:51:25.874Z,93901.70
2023-03-10T09:53:52.219Z,93896.04
2023-03-10T09:56:18.604Z,93890.88
2023-03-10T09:58:44.953Z,93897.49
2023-03-10T10:01:11.332Z,93896.36
2023-03-10T10:03:51.421Z,93891.38
2023-03-10T10:06:04.073Z,93891.60
2023-03-10T10:08:30.481Z,93867.55
2023-03-10T10:10:56.853Z,93867.55
2023-03-10T10:13:25.611Z,93867.39
2023-03-10T10:15:57.154Z,93855.22
2023-03-10T10:18:20.915Z,93857.02
2023-03-10T10:20:44.903Z,93861.89
2023-03-10T10:23:11.226Z,93860.13
2023-03-10T10:25:37.615Z,93858.66
2023-03-10T10:28:03.947Z,93851.73
2023-03-10T10:30:30.414Z,93854.00
2023-03-10T10:32:56.721Z,93845.44
2023-03-10T10:35:23.044Z,93852.27
2023-03-10T10:37:49.385Z,93844.77
2023-03-10T10:40:15.770Z,93851.72
2023-03-10T10:42:42.118Z,93847.03
2023-03-10T10:45:08.536Z,93850.90
2023-03-10T10:47:34.881Z,93857.04
2023-03-10T10:50:01.266Z,93865.62
2023-03-10T10:52:27.664Z,93854.45
2023-03-10T10:54:54.038Z,93862.38
2023-03-10T10:57:21.353Z,93858.83
2023-03-10T10:59:46.751Z,93852.34
2023-03-10T11:02:13.109Z,93855.09
2023-03-10T11:04:39.472Z,93852.52
2023-03-10T11:07:05.857Z,93856.84
2023-03-10T11:09:32.246Z,93845.22
2023-03-10T11:11:58.600Z,93844.73
2023-03-10T11:14:24.981Z,93839.42
2023-03-10T11:16:51.354Z,93831.00
2023-03-10T11:19:17.721Z,93819.05
2023-03-10T11:21:44.079Z,93818.58
2023-03-10T11:24:10.472Z,93783.46
2023-03-10T11:26:36.818Z,93794.03
2023-03-10T11:29:03.229Z,93773.03
2023-03-10T11:31:29.672Z,93780.30
2023-03-10T11:33:55.945Z,93774.80
2023-03-10T11:36:22.286Z,93777.70
2023-03-10T11:38:48.681Z,93760.92
2023-03-10T11:41:15.056Z,93758.52
2023-03-10T11:43:41.442Z,93755.94
2023-03-10T11:46:07.811Z,93766.07
2023-03-10T11:48:34.161Z,93764.48
2023-03-10T11:51:00.513Z,93739.39
2023-03-10T11:53:26.901Z,93754.96
2023-03-10T11:55:53.256Z,93749.47
2023-03-10T11:58:19.696Z,93758.99
2023-03-10T12:00:46.024Z,93754.79
2023-03-10T12:03:12.459Z,93737.52
2023-03-10T12:05:38.803Z,93740.27
2023-03-10T12:08:05.189Z,93718.64
2023-03-10T12:10:31.613Z,93727.67
2023-03-10T12:12:58.027Z,93715.42
2023-03-10T12:15:24.439Z,93708.16
2023-03-10T12:17:50.826Z,93677.77
2023-03-10T12:20:17.283Z,93699.61
2023-03-10T12:22:43.549Z,93690.24
2023-03-10T12:25:09.896Z,93686.84
2023-03-10T12:27:36.285Z,93683.14
2023-03-10T12:30:02.628Z,93677.66
2023-03-10T12:32:29.076Z,93662.16
2023-03-10T12:34:55.393Z,93660.67
2023-03-10T12:37:21.780Z,93655.84
2023-03-10T12:39:48.147Z,93663.41
2023-03-10T12:42:14.518Z,93664.22
2023-03-10T12:44:40.920Z,93660.52
2023-03-10T12:47:07.360Z,93657.13
2023-03-10T12:49:33.671Z,93651.63
2023-03-10T12:52:00.034Z,93650.98
2023-03-10T12:54:26.382Z,93647.29
2023-03-10T12:56:52.742Z,93637.63
2023-03-10T12:59:19.102Z,93607.44
2023-03-10T13:01:55.144Z,93626.80
2023-03-10T13:04:11.847Z,93636.83
2023-03-10T13:06:38.224Z,93634.55
2023-03-10T13:09:04.610Z,93629.54
2023-03-10T13:11:30.996Z,93628.42
2023-03-10T13:13:57.388Z,93627.62
2023-03-10T13:16:23.792Z,93614.55
2023-03-10T13:18:50.129Z,93607.45
2023-03-10T13:21:16.513Z,93607.13
2023-03-10T13:23:42.855Z,93594.70
2023-03-10T13:26:09.246Z,93595.00
2023-03-10T13:28:35.633Z,93583.86
2023-03-10T13:31:02.016Z,93582.91
2023-03-10T13:33:28.346Z,93569.36
2023-03-10T13:35:54.776Z,93572.09
2023-03-10T13:38:21.085Z,93562.91
2023-03-10T13:40:47.476Z,93559.18
2023-03-10T13:43:14.914Z,93545.97
2023-03-10T13:45:41.428Z,93541.11
2023-03-10T13:48:07.698Z,93547.08
2023-03-10T13:50:34.059Z,93543.39
2023-03-10T13:53:00.424Z,93530.00
2023-03-10T13:55:26.848Z,93522.87
2023-03-10T13:57:53.147Z,93518.68
2023-03-10T14:00:19.529Z,93507.39
2023-03-10T14:02:45.873Z,93516.09
2023-03-10T14:05:12.272Z,93516.91
2023-03-10T14:07:38.615Z,93523.84
2023-03-10T14:10:05.022Z,93522.87
2023-03-10T14:12:31.364Z,93500.31
2023-03-10T14:14:57.771Z,93500.31
2023-03-10T14:17:24.114Z,93501.12
2023-03-10T14:19:50.532Z,93503.55
2023-03-10T14:22:16.898Z,93499.98
2023-03-10T14:24:43.278Z,93507.90
2023-03-10T14:27:10.689Z,93496.77
2023-03-10T14:29:37.107Z,93493.86
2023-03-10T14:32:03.461Z,93505.80
2023-03-10T14:34:29.852Z,93488.84
2023-03-10T14:36:56.206Z,93484.82
2023-03-10T14:39:22.593Z,93496.59
2023-03-10T14:41:49.006Z,93507.42
2023-03-10T14:44:15.383Z,93494.00
2023-03-10T14:46:41.828Z,93494.19
2023-03-10T14:49:08.124Z,93496.41
2023-03-10T14:51:36.460Z,93489.97
2023-03-10T14:54:00.858Z,93483.67
2023-03-10T14:56:27.162Z,93462.55
2023-03-10T14:58:53.536Z,93492.37
2023-03-10T15:01:19.892Z,93505.44
2023-03-10T15:03:46.260Z,93508.68
2023-03-10T15:06:12.602Z,93494.48
2023-03-10T15:08:38.980Z,93503.22
2023-03-10T15:11:05.319Z,93495.95
2023-03-10T15:13:31.718Z,93502.73
2023-03-10T15:15:58.103Z,93507.09
2023-03-10T15:18:24.456Z,93516.78
2023-03-10T15:20:50.788Z,93522.09
2023-03-10T15:23:19.303Z,93535.98
2023-03-10T15:25:45.708Z,93536.77
2023-03-10T15:28:09.873Z,93539.86
2023-03-10T15:30:36.220Z,93522.12
2023-03-10T15:33:02.598Z,93550.32
2023-03-10T15:35:28.936Z,93550.50
2023-03-10T15:37:55.308Z,93550.32
2023-03-10T15:40:21.656Z,93550.33
2023-03-10T15:42:48.054Z,93548.07
2023-03-10T15:45:14.380Z,93534.69
2023-03-10T15:47:40.773Z,93507.59
2023-03-10T15:50:07.116Z,93540.00
2023-03-10T15:52:33.499Z,93557.11
2023-03-10T15:54:59.865Z,93534.35
2023-03-10T15:57:26.242Z,93534.35
2023-03-10T15:59:52.586Z,93540.96
2023-03-10T16:02:19.000Z,93538.05
2023-03-10T16:04:45.384Z,93531.61
2023-03-10T16:07:11.724Z,93525.95
2023-03-10T16:09:38.065Z,93529.53
2023-03-10T16:12:04.760Z,93523.70
2023-03-10T16:14:31.106Z,93518.88
2023-03-10T16:16:57.487Z,93510.48
2023-03-10T16:19:23.814Z,93498.08
2023-03-10T16:21:50.224Z,93487.43
2023-03-10T16:24:16.587Z,93487.43
2023-03-10T16:26:44.720Z,93477.11
2023-03-10T16:29:09.319Z,93477.11
2023-03-10T16:31:35.676Z,93469.52
2023-03-10T16:34:02.041Z,93475.64
2023-03-10T16:36:28.387Z,93467.27
2023-03-10T16:38:54.775Z,93465.19
2023-03-10T16:41:21.131Z,93465.19
2023-03-10T16:43:47.514Z,93487.77
2023-03-10T16:46:13.969Z,93485.48
2023-03-10T16:48:40.313Z,93475.81
2023-03-10T16:51:06.645Z,93478.73
2023-03-10T16:53:33.040Z,93463.24
2023-03-10T16:55:59.373Z,93466.78
2023-03-10T16:58:25.788Z,93457.75
2023-03-10T17:00:52.128Z,93467.27
2023-03-10T17:03:18.556Z,93462.44
2023-03-10T17:05:44.854Z,93461.14
2023-03-10T17:08:11.227Z,93474.70
2023-03-10T17:10:37.563Z,93485.33
2023-03-10T17:13:03.949Z,93480.49
2023-03-10T17:15:30.291Z,93478.09
2023-03-10T17:17:56.747Z,93484.36
2023-03-10T17:20:23.087Z,93486.13
2023-03-10T17:22:49.500Z,93453.58
2023-03-10T17:25:15.839Z,93442.80
2023-03-10T17:27:43.288Z,93468.58
2023-03-10T17:30:08.566Z,93470.20
2023-03-10T17:32:34.981Z,93488.89
2023-03-10T17:35:02.241Z,93481.30
2023-03-10T17:37:27.663Z,93485.98
2023-03-10T17:39:54.014Z,93479.23
2023-03-10T17:42:20.397Z,93477.13
2023-03-10T17:44:46.745Z,93455.86
2023-03-10T17:47:13.119Z,93455.86
2023-03-10T17:49:39.461Z,93479.06
2023-03-10T17:52:05.841Z,93492.76
2023-03-10T17:54:32.184Z,93470.02
2023-03-10T17:56:58.559Z,93463.09
2023-03-10T17:59:24.903Z,93452.14
2023-03-10T18:01:51.334Z,93447.63
2023-03-10T18:04:17.666Z,93447.63
2023-03-10T18:06:44.047Z,93458.44
2023-03-10T18:09:10.391Z,93460.53
2023-03-10T18:11:36.816Z,93462.94
2023-03-10T18:14:04.002Z,93451.66
2023-03-10T18:16:29.600Z,93430.86
2023-03-10T18:18:55.939Z,93429.40
2023-03-10T18:21:22.391Z,93429.40
2023-03-10T18:23:48.743Z,93417.01
2023-03-10T18:26:15.115Z,93416.53
2023-03-10T18:28:41.492Z,93410.08
2023-03-10T18:31:07.978Z,93402.02
2023-03-10T18:33:34.319Z,93395.56
2023-03-10T18:36:00.667Z,93393.80
2023-03-10T18:38:27.065Z,93413.62
2023-03-10T18:40:53.444Z,93403.81
2023-03-10T18:43:19.777Z,93403.81
2023-03-10T18:45:46.162Z,93412.81
2023-03-10T18:48:12.528Z,93398.31
2023-03-10T18:50:38.891Z,93403.30
2023-03-10T18:53:05.261Z,93385.91
2023-03-10T18:55:31.641Z,93392.69
2023-03-10T18:57:58.016Z,93378.50
2023-03-10T19:00:24.378Z,93378.13
2023-03-10T19:02:50.777Z,93383.95
2023-03-10T19:05:17.136Z,93373.02
2023-03-10T19:07:43.468Z,93351.57
2023-03-10T19:10:09.854Z,93351.57
2023-03-10T19:12:36.222Z,93365.27
2023-03-10T19:15:02.592Z,93366.08
2023-03-10T19:17:28.933Z,93358.64
2023-03-10T19:19:55.325Z,93358.64
2023-03-10T19:22:21.659Z,93358.47
2023-03-10T19:24:48.051Z,93344.16
2023-03-10T19:27:14.392Z,93329.65
2023-03-10T19:29:40.775Z,93343.66
2023-03-10T19:32:07.115Z,93334.95
2023-03-10T19:34:33.498Z,93307.26
2023-03-10T19:36:59.841Z,93313.70
2023-03-10T19:39:26.221Z,93328.84
2023-03-10T19:41:52.554Z,93321.11
2023-03-10T19:44:19.012Z,93329.32
2023-03-10T19:46:45.393Z,93319.81
2023-03-10T19:49:11.740Z,93326.27
2023-03-10T19:51:38.126Z,93317.23
2023-03-10T19:54:04.501Z,93309.17
2023-03-10T19:56:30.835Z,93314.33
2023-03-10T19:58:57.230Z,93308.70
2023-03-10T20:01:23.547Z,93328.52
2023-03-10T20:03:49.961Z,93328.52
2023-03-10T20:06:16.252Z,93357.69
2023-03-10T20:08:42.632Z,93377.84
2023-03-10T20:11:08.979Z,93374.45
2023-03-10T20:13:35.385Z,93355.10
2023-03-10T20:16:01.717Z,93355.10
2023-03-10T20:18:28.126Z,93345.59
2023-03-10T20:20:54.457Z,93341.10
2023-03-10T20:23:20.841Z,93331.09
2023-03-10T20:25:47.169Z,93331.75
2023-03-10T20:28:13.545Z,93341.58
2023-03-10T20:30:39.880Z,93340.77
2023-03-10T20:33:06.268Z,93334.17
2023-03-10T20:35:32.652Z,93334.17
2023-03-10T20:37:58.972Z,93325.16
2023-03-10T20:40:25.352Z,93325.16
2023-03-10T20:42:52.668Z,93298.75
2023-03-10T20:45:18.068Z,93262.95
2023-03-10T20:47:44.453Z,93262.81
2023-03-10T20:50:10.777Z,93247.34
2023-03-10T20:52:37.154Z,93247.34
2023-03-10T20:55:03.486Z,93248.33
2023-03-10T20:57:29.930Z,93247.05
2023-03-10T20:59:56.271Z,93235.11
2023-03-10T21:02:22.673Z,93241.55
2023-03-10T21:04:49.041Z,93229.30
2023-03-10T21:07:15.420Z,93223.84
2023-03-10T21:09:41.759Z,93225.29
2023-03-10T21:12:08.151Z,93224.00
2023-03-10T21:14:34.486Z,93224.00
2023-03-10T21:17:00.914Z,93226.28
2023-03-10T21:19:27.231Z,93224.66
2023-03-10T21:21:53.624Z,93232.06
2023-03-10T21:24:19.960Z,93232.06
2023-03-10T21:26:46.360Z,93228.67
2023-03-10T21:29:12.690Z,93228.86
2023-03-10T21:31:39.071Z,93231.77
2023-03-10T21:34:05.410Z,93233.20
2023-03-10T21:36:31.804Z,93232.39
2023-03-10T21:38:58.172Z,93223.05
2023-03-10T21:41:24.561Z,93226.13
2023-03-10T21:43:50.900Z,93217.27
2023-03-10T21:46:17.319Z,93218.08
2023-03-10T21:48:43.649Z,93218.08
2023-03-10T21:51:10.031Z,93235.78
2023-03-10T21:53:36.434Z,93240.94
2023-03-10T21:56:02.787Z,93239.83
2023-03-10T21:58:29.188Z,93239.98
2023-03-10T22:00:56.342Z,93238.21
2023-03-10T22:03:21.910Z,93213.91
2023-03-10T22:05:48.278Z,93213.91
2023-03-10T22:08:14.620Z,93245.13
2023-03-10T22:10:41.006Z,93247.08
2023-03-10T22:13:07.367Z,93258.83
2023-03-10T22:15:33.749Z,93252.23
2023-03-10T22:18:00.125Z,93216.78
2023-03-10T22:20:26.510Z,93179.76
2023-03-10T22:22:52.844Z,93188.14
2023-03-10T22:25:19.240Z,93201.18
2023-03-10T22:27:45.569Z,93202.47
2023-03-10T22:30:11.976Z,93199.89
2023-03-10T22:32:38.355Z,93199.08
2023-03-10T22:35:04.694Z,93196.69
2023-03-10T22:37:31.037Z,93183.00
2023-03-10T22:39:57.445Z,93179.28
2023-03-10T22:42:23.782Z,93179.13
2023-03-10T22:44:50.191Z,93175.42
2023-03-10T22:47:16.520Z,93174.13
2023-03-10T22:49:42.898Z,93156.27
2023-03-10T22:52:09.235Z,93166.58
2023-03-10T22:54:35.624Z,93165.44
2023-03-10T22:57:01.966Z,93159.81
2023-03-10T22:59:28.349Z,93162.09
2023-03-10T23:01:54.789Z,93161.28
2023-03-10T23:04:21.074Z,93152.41
2023-03-10T23:06:47.418Z,93146.30
2023-03-10T23:09:13.824Z,93131.98
2023-03-10T23:11:40.164Z,93116.69
2023-03-10T23:14:06.547Z,93108.47
2023-03-10T23:16:33.264Z,93102.52
2023-03-10T23:18:59.267Z,93108.47
2023-03-10T23:21:25.611Z,93104.28
2023-03-10T23:23:51.996Z,93097.36
2023-03-10T23:26:18.329Z,93105.09
2023-03-10T23:28:44.708Z,93085.63
2023-03-10T23:31:11.092Z,93085.63
2023-03-10T23:33:37.444Z,93112.67
2023-03-10T23:36:03.843Z,93112.48
2023-03-10T23:38:30.190Z,93110.91
2023-03-10T23:40:56.523Z,93103.17
2023-03-10T23:43:22.898Z,93100.27
2023-03-10T23:45:49.271Z,93098.17
2023-03-10T23:48:15.623Z,93099.47
2023-03-10T23:50:41.986Z,93094.31
2023-03-10T23:53:08.361Z,93095.30
2023-03-10T23:55:34.712Z,93095.78
2023-03-10T23:58:01.127Z,93110.77
